Data for 04/09/2007

Time Sea-Level Adjusted Pressure Absolute Pressure Temperature Relative Humidity Dew Point   
(mb) (inHg) (mb) (inHg) (C) (F) (%) (C) (F)
00:05 1008 29.77 838 24.75 5.7 42.3 54 -2.9 26.7
00:10 1008 29.77 837 24.72 5.7 42.2 54 -3 26.6
00:15 1008 29.77 838 24.75 5.5 42 55 -2.8 27
00:20 1008 29.77 838 24.75 5.5 41.8 54 -3 26.5
00:25 1008 29.77 838 24.75 5.6 42 54 -3 26.6
00:30 1008 29.77 838 24.75 5.6 42.2 54 -2.9 26.8
00:35 1008 29.77 838 24.75 5.7 42.3 54 -2.9 26.7
00:40 1008 29.77 838 24.75 5.6 42.1 54 -2.9 26.8
00:45 1009 29.8 838 24.75 5.8 42.4 54 -2.9 26.7
00:50 1008 29.77 838 24.75 5.8 42.4 54 -2.8 27
00:55 1008 29.77 838 24.75 5.9 42.6 53 -3.1 26.5
01:00 1008 29.77 838 24.75 6.1 43 51 -3.4 25.9
01:05 1008 29.77 838 24.75 6.2 43.2 50 -3.3 26.1
01:10 1008 29.77 838 24.75 6.5 43.8 50 -3 26.5
01:15 1008 29.77 838 24.75 6.3 43.4 51 -3 26.5
01:20 1008 29.77 838 24.75 6.3 43.4 52 -2.7 27.2
01:25 1008 29.77 837 24.72 6.2 43.2 54 -2.5 27.6
01:30 1008 29.77 837 24.72 6.2 43.2 54 -2.3 27.8
01:35 1008 29.77 837 24.72 6.1 43 55 -2.2 28.1
01:40 1008 29.77 837 24.72 6 42.8 56 -2.2 28.1
01:45 1008 29.77 837 24.72 5.9 42.7 57 -1.9 28.5
01:50 1008 29.77 837 24.72 5.5 41.9 59 -1.8 28.7
01:55 1008 29.77 837 24.72 5.3 41.5 59 -2 28.4
02:00 1008 29.77 837 24.72 5.3 41.6 59 -2 28.4
02:05 1008 29.77 837 24.72 5 41.1 60 -2 28.3
02:10 1008 29.77 837 24.72 4.9 40.7 61 -2.1 28.2
02:15 1008 29.77 837 24.72 5 40.9 61 -2 28.4
02:20 1008 29.77 837 24.72 4.9 40.8 62 -1.8 28.7
02:25 1008 29.77 837 24.72 5 40.9 62 -1.8 28.7
02:30 1008 29.77 837 24.72 5.2 41.4 61 -1.7 28.9
02:35 1008 29.77 837 24.72 5.5 41.9 59 -1.7 28.9
02:40 1008 29.77 837 24.72 5.7 42.2 60 -1.5 29.2
02:45 1007 29.74 836 24.69 5.6 42.1 60 -1.5 29.4
02:50 1007 29.74 836 24.69 5.5 42 61 -1.4 29.5
02:55 1007 29.74 836 24.69 5.3 41.6 62 -1.3 29.6
03:00 1007 29.74 836 24.69 5.3 41.5 62 -1.4 29.5
03:05 1007 29.74 836 24.69 5.3 41.5 62 -1.3 29.7
03:10 1007 29.74 836 24.69 5.3 41.5 63 -1.3 29.7
03:15 1007 29.74 836 24.69 5.4 41.7 62 -1.2 29.9
03:20 1007 29.74 836 24.69 5.4 41.8 63 -1 30.1
03:25 1007 29.74 836 24.69 5.5 41.8 63 -1 30.2
03:30 1007 29.74 836 24.69 5.5 41.9 63 -1 30.1
03:35 1007 29.74 836 24.69 5.6 42 62 -1 30.2
03:40 1007 29.74 836 24.69 5.6 42.1 62 -1 30.2
03:45 1007 29.74 836 24.69 5.7 42.2 62 -1 30.3
03:50 1007 29.74 836 24.69 5.7 42.3 62 -1 30.2
03:55 1007 29.74 836 24.69 5.8 42.4 62 -1 30.2
04:00 1007 29.74 836 24.69 5.7 42.3 62 -0.9 30.4
04:05 1007 29.74 836 24.69 5.5 41.9 63 -0.9 30.4
04:10 1007 29.74 836 24.69 5.3 41.6 64 -1 30.2
04:15 1007 29.74 836 24.69 5.2 41.4 65 -0.9 30.4
04:20 1007 29.74 836 24.69 5 40.9 65 -1.1 30.1
04:25 1007 29.74 836 24.69 5 40.9 66 -0.9 30.4
04:30 1007 29.74 836 24.69 4.8 40.6 67 -0.9 30.4
04:35 1007 29.74 836 24.69 4.8 40.7 66 -1 30.1
04:40 1007 29.74 836 24.69 4.9 40.8 66 -1 30.2
04:45 1007 29.74 836 24.69 4.8 40.7 66 -0.9 30.3
04:50 1006 29.71 836 24.69 4.8 40.6 67 -0.9 30.4
04:55 1006 29.71 836 24.69 4.7 40.4 67 -1 30.2
05:00 1006 29.71 835 24.66 4.7 40.5 66 -1 30.2
05:05 1006 29.71 835 24.66 4.7 40.5 66 -1 30.3
05:10 1006 29.71 835 24.66 4.6 40.4 67 -1 30.3
05:15 1006 29.71 835 24.66 4.4 39.9 68 -1 30.2
05:20 1006 29.71 835 24.66 4.3 39.7 68 -1 30.2
05:25 1006 29.71 835 24.66 4.3 39.7 69 -0.9 30.3
05:30 1006 29.71 835 24.66 4.3 39.8 68 -0.9 30.3
05:35 1006 29.71 835 24.66 4.3 39.8 68 -1 30.3
05:40 1006 29.71 835 24.66 4.3 39.8 68 -1 30.2
05:45 1006 29.71 835 24.66 4.3 39.8 68 -1.1 30
05:50 1006 29.71 835 24.66 4.4 40 67 -1.1 30
05:55 1006 29.71 835 24.66 4.5 40.2 68 -0.9 30.3
06:00 1006 29.71 835 24.66 4.7 40.5 67 -0.9 30.5
06:05 1006 29.71 835 24.66 4.9 40.9 66 -0.9 30.4
06:10 1006 29.71 835 24.66 5.1 41.2 66 -0.7 30.7
06:15 1006 29.71 835 24.66 5 41.1 66 -0.8 30.6
06:20 1006 29.71 835 24.66 5.1 41.2 66 -0.8 30.6
06:25 1006 29.71 835 24.66 5.3 41.5 66 -0.6 30.9
06:30 1006 29.71 835 24.66 5.1 41.1 66 -0.7 30.8
06:35 1006 29.71 835 24.66 5.1 41.1 67 -0.6 31
06:40 1006 29.71 835 24.66 4.8 40.6 68 -0.5 31.1
06:45 1005 29.68 835 24.66 4.6 40.2 69 -0.7 30.7
06:50 1005 29.68 835 24.66 4.8 40.6 67 -0.8 30.6
06:55 1005 29.68 835 24.66 5 41 66 -0.7 30.7
07:00 1005 29.68 834 24.63 5 41 67 -0.6 30.9
07:05 1005 29.68 834 24.63 5.1 41.2 67 -0.6 30.9
07:10 1005 29.68 834 24.63 5.1 41.2 66 -0.7 30.8
07:15 1005 29.68 834 24.63 5.2 41.3 66 -0.6 30.9
07:20 1005 29.68 834 24.63 5.1 41.1 67 -0.6 30.9
07:25 1005 29.68 834 24.63 5.3 41.5 65 -0.7 30.7
07:30 1005 29.68 834 24.63 5.3 41.6 65 -0.6 30.8
07:35 1005 29.68 834 24.63 5.3 41.6 65 -0.6 30.9
07:40 1005 29.68 834 24.63 5.3 41.5 66 -0.6 31
07:45 1005 29.68 834 24.63 5.3 41.5 66 -0.6 30.9
07:50 1005 29.68 834 24.63 5.5 41.8 65 -0.6 30.9
07:55 1005 29.68 834 24.63 5.6 42.1 64 -0.6 31
08:00 1005 29.68 834 24.63 5.8 42.4 64 -0.5 31.2
08:05 1005 29.68 834 24.63 5.9 42.7 63 -0.6 31
08:10 1005 29.68 834 24.63 6.2 43.2 62 -0.5 31.1
08:15 1005 29.68 834 24.63 6.3 43.3 62 -0.4 31.3
08:20 1005 29.68 834 24.63 6.2 43.2 63 -0.3 31.4
08:25 1005 29.68 834 24.63 6.2 43.1 63 -0.2 31.6
08:30 1005 29.68 834 24.63 6 42.8 64 -0.2 31.6
08:35 1005 29.68 834 24.63 5.9 42.7 65 -0.1 31.8
08:40 1005 29.68 834 24.63 5.9 42.6 65 -0.2 31.7
08:45 1005 29.68 834 24.63 6 42.8 65 -0.1 31.8
08:50 1005 29.68 834 24.63 6.1 42.9 64 -0.2 31.6
08:55 1005 29.68 834 24.63 6.3 43.3 64 -0.1 31.8
09:00 1005 29.68 834 24.63 6.4 43.6 63 -0.1 31.9
09:05 1005 29.68 834 24.63 6.6 43.9 62 -0.2 31.7
09:10 1005 29.68 834 24.63 6.7 44 62 -0.2 31.7
09:15 1005 29.68 834 24.63 6.8 44.2 62 0.1 32.2
09:20 1005 29.68 834 24.63 6.8 44.3 62 0.1 32.2
09:25 1005 29.68 834 24.63 6.9 44.3 62 0.1 32.2
09:30 1005 29.68 834 24.63 6.9 44.4 61 0 32.1
09:35 1005 29.68 834 24.63 7 44.7 60 -0.2 31.7
09:40 1005 29.68 834 24.63 7.2 45 60 0.1 32.2
09:45 1005 29.68 834 24.63 7.5 45.4 61 0.5 33
09:50 1005 29.68 834 24.63 7.5 45.4 62 0.6 33.1
09:55 1005 29.68 834 24.63 7.3 45.1 62 0.4 32.8
10:00 1005 29.68 834 24.63 7.4 45.2 63 0.8 33.4
10:05 1005 29.68 834 24.63 7.3 45.2 63 0.8 33.5
10:10 1005 29.68 834 24.63 7.3 45.1 63 0.7 33.3
10:15 1005 29.68 834 24.63 7.4 45.3 63 0.8 33.5
10:20 1005 29.68 834 24.63 7.4 45.4 63 0.9 33.6
10:25 1005 29.68 834 24.63 7.1 44.8 68 1.6 34.8
10:30 1005 29.68 834 24.63 6.7 44.1 68 1.3 34.4
10:35 1005 29.68 834 24.63 6.6 43.9 68 1.2 34.2
10:40 1005 29.68 834 24.63 6.9 44.5 69 1.6 34.9
10:45 1005 29.68 834 24.63 6.9 44.5 64 0.7 33.2
10:50 1005 29.68 834 24.63 6.5 43.6 69 1.2 34.2
10:55 1005 29.68 834 24.63 6.4 43.5 66 0.6 33
11:00 1005 29.68 834 24.63 6.4 43.5 68 1 33.7
11:05 1005 29.68 834 24.63 6.5 43.7 68 0.9 33.7
11:10 1005 29.68 834 24.63 6.4 43.5 68 1 33.8
11:15 1005 29.68 834 24.63 6.5 43.7 67 0.8 33.4
11:20 1005 29.68 834 24.63 6.5 43.7 68 1.1 33.9
11:25 1005 29.68 834 24.63 6.6 43.8 67 0.9 33.7
11:30 1004 29.65 834 24.63 6.7 44 69 1.4 34.6
11:35 1004 29.65 834 24.63 7 44.5 69 1.8 35.2
11:40 1004 29.65 834 24.63 6.9 44.5 70 1.8 35.2
11:45 1004 29.65 834 24.63 7.1 44.8 71 2.1 35.9
11:50 1004 29.65 833 24.6 7.6 45.7 67 1.8 35.3
11:55 1004 29.65 833 24.6 7.8 46 68 2.3 36.1
12:00 1004 29.65 833 24.6 8 46.5 69 2.8 37
12:05 1004 29.65 833 24.6 8.5 47.2 67 2.7 36.9
12:10 1004 29.65 833 24.6 8.5 47.3 65 2.3 36.1
12:15 1004 29.65 833 24.6 8.1 46.6 68 2.6 36.7
12:20 1004 29.65 833 24.6 8.1 46.6 66 2.2 36
12:25 1004 29.65 833 24.6 8.1 46.6 67 2.3 36.2
12:30 1004 29.65 833 24.6 8.2 46.8 69 2.9 37.2
12:35 1004 29.65 833 24.6 8.2 46.8 70 3 37.5
12:40 1004 29.65 833 24.6 8.4 47.1 69 3 37.4
12:45 1004 29.65 833 24.6 8.8 47.8 66 2.8 37.1
12:50 1004 29.65 833 24.6 9 48.1 64 2.6 36.8
12:55 1004 29.65 833 24.6 8.8 47.8 67 3 37.4
13:00 1004 29.65 833 24.6 8.6 47.5 70 3.4 38.2
13:05 1004 29.65 834 24.63 8.3 47 69 3.1 37.5
13:10 1005 29.68 834 24.63 5.7 42.3 80 2.6 36.7
13:15 1006 29.71 835 24.66 3.3 37.9 89 1.7 35
13:20 1006 29.71 835 24.66 2.8 37.1 93 1.8 35.2
13:25 1006 29.71 835 24.66 2.7 36.9 93 1.6 34.9
13:30 1006 29.71 836 24.69 2.2 36 93 1.2 34.2
13:35 1006 29.71 836 24.69 1.7 35 94 0.8 33.4
13:40 1007 29.74 836 24.69 1.4 34.5 95 0.6 33.1
13:45 1007 29.74 836 24.69 1.2 34.2 95 0.6 33.1
13:50 1006 29.71 836 24.69 1.3 34.3 95 0.6 33.1
13:55 1006 29.71 836 24.69 1.5 34.7 95 0.8 33.4
14:00 1006 29.71 836 24.69 1.5 34.8 95 0.9 33.6
14:05 1006 29.71 836 24.69 1.8 35.2 95 1 33.8
14:10 1006 29.71 836 24.69 2.1 35.8 94 1.2 34.2
14:15 1006 29.71 835 24.66 2.4 36.4 93 1.4 34.4
14:20 1006 29.71 835 24.66 2.8 37 92 1.6 34.9
14:25 1006 29.71 835 24.66 3.3 37.9 91 2 35.6
14:30 1006 29.71 835 24.66 3.9 39 89 2.3 36.1
14:35 1006 29.71 835 24.66 4.3 39.8 87 2.3 36.1
14:40 1006 29.71 835 24.66 4.4 40 87 2.4 36.3
14:45 1006 29.71 835 24.66 4.6 40.2 86 2.5 36.4
14:50 1006 29.71 835 24.66 4.7 40.5 85 2.4 36.3
14:55 1006 29.71 835 24.66 5 41 84 2.5 36.5
15:00 1006 29.71 835 24.66 4.9 40.8 84 2.3 36.2
15:05 1005 29.68 835 24.66 4.7 40.5 85 2.4 36.3
15:10 1005 29.68 834 24.63 5.1 41.2 83 2.4 36.4
15:15 1005 29.68 834 24.63 6 42.8 79 2.6 36.7
15:20 1005 29.68 834 24.63 6.5 43.8 76 2.7 36.8
15:25 1005 29.68 834 24.63 6.6 43.9 76 2.7 36.9
15:30 1005 29.68 834 24.63 6.7 44.1 75 2.6 36.8
15:35 1005 29.68 834 24.63 7 44.6 76 3.1 37.6
15:40 1005 29.68 834 24.63 7.6 45.6 73 3.1 37.6
15:45 1005 29.68 834 24.63 7.3 45.2 77 3.6 38.5
15:50 1005 29.68 834 24.63 7.2 45 77 3.5 38.3
15:55 1005 29.68 834 24.63 6.4 43.6 80 3.3 37.9
16:00 1005 29.68 834 24.63 6 42.8 82 3.1 37.6
16:05 1005 29.68 834 24.63 5.7 42.2 81 2.7 36.8
16:10 1005 29.68 834 24.63 5.5 41.8 80 2.3 36.1
16:15 1005 29.68 834 24.63 5.4 41.7 78 1.9 35.4
16:20 1005 29.68 834 24.63 5.5 41.9 78 2 35.5
16:25 1005 29.68 834 24.63 5.2 41.3 79 1.9 35.4
16:30 1005 29.68 834 24.63 5.3 41.6 79 2 35.6
16:35 1005 29.68 834 24.63 5.6 42 78 2 35.6
16:40 1005 29.68 834 24.63 5.4 41.8 79 2.1 35.8
16:45 1005 29.68 834 24.63 5.3 41.6 83 2.6 36.7
16:50 1005 29.68 834 24.63 5 41 81 2.1 35.7
16:55 1005 29.68 834 24.63 4.4 40 82 1.7 35
17:00 1005 29.68 834 24.63 4.2 39.6 84 1.8 35.3
17:05 1005 29.68 834 24.63 3.8 38.9 87 1.9 35.4
17:10 1004 29.65 834 24.63 3.4 38.2 87 1.5 34.8
17:15 1004 29.65 834 24.63 3.6 38.5 86 1.5 34.8
17:20 1004 29.65 834 24.63 4.2 39.6 81 1.2 34.2
17:25 1004 29.65 834 24.63 5.2 41.3 74 1 33.7
17:30 1004 29.65 834 24.63 5.4 41.7 80 2.2 35.9
17:35 1004 29.65 834 24.63 5.4 41.8 82 2.5 36.5
17:40 1004 29.65 834 24.63 5.6 42.1 79 2.3 36.1
17:45 1005 29.68 834 24.63 5.8 42.5 79 2.4 36.4
17:50 1005 29.68 834 24.63 6 42.8 78 2.5 36.5
17:55 1005 29.68 834 24.63 5.8 42.5 78 2.3 36.1
18:00 1005 29.68 834 24.63 5.8 42.4 77 2 35.7
18:05 1004 29.65 834 24.63 6.6 43.9 73 2.2 35.9
18:10 1004 29.65 833 24.6 7.1 44.8 68 1.7 35.1
18:15 1004 29.65 833 24.6 7.1 44.8 68 1.6 34.8
18:20 1004 29.65 833 24.6 7.3 45.1 70 2.2 35.9
18:25 1004 29.65 833 24.6 6.5 43.7 78 3 37.3
18:30 1004 29.65 833 24.6 6 42.8 77 2.4 36.3
18:35 1004 29.65 833 24.6 5.7 42.2 79 2.3 36.1
18:40 1004 29.65 833 24.6 5.7 42.3 77 2 35.7
18:45 1004 29.65 833 24.6 5.9 42.6 75 1.8 35.2
18:50 1004 29.65 833 24.6 5.9 42.6 78 2.3 36.2
18:55 1004 29.65 833 24.6 6 42.9 76 2.1 35.8
19:00 1004 29.65 833 24.6 6 42.8 77 2.2 35.9
19:05 1004 29.65 834 24.63 6.1 43 76 2.3 36.1
19:10 1004 29.65 834 24.63 5.8 42.4 75 1.7 35
19:15 1005 29.68 834 24.63 5.3 41.5 75 1.2 34.2
19:20 1005 29.68 834 24.63 4.3 39.7 77 0.6 33.2
19:25 1005 29.68 834 24.63 3.7 38.7 77 0 32
19:30 1005 29.68 834 24.63 3.7 38.7 76 -0.2 31.7
19:35 1005 29.68 834 24.63 3.9 39 75 -0.1 31.8
19:40 1005 29.68 835 24.66 3.9 39.1 75 -0 32
19:45 1006 29.71 835 24.66 3.5 38.2 83 0.8 33.4
19:50 1006 29.71 835 24.66 3 37.4 83 0.5 32.8
19:55 1006 29.71 835 24.66 2.7 36.9 85 0.4 32.8
20:00 1006 29.71 835 24.66 2.6 36.7 85 0.4 32.7
20:05 1006 29.71 836 24.69 2 35.7 89 0.4 32.8
20:10 1007 29.74 836 24.69 1.5 34.7 92 0.3 32.6
20:15 1007 29.74 836 24.69 1 33.7 94 0.1 32.2
20:20 1007 29.74 836 24.69 0.7 33.2 95 -0 32
20:25 1007 29.74 837 24.72 0.7 33.3 96 0.1 32.2
20:30 1007 29.74 837 24.72 0.7 33.3 95 0 32.1
20:35 1007 29.74 837 24.72 0.8 33.4 94 -0.2 31.7
20:40 1007 29.74 836 24.69 0.8 33.5 91 -0.4 31.2
20:45 1007 29.74 836 24.69 1.1 34 87 -0.8 30.6
20:50 1007 29.74 836 24.69 1 33.9 90 -0.4 31.2
20:55 1007 29.74 836 24.69 0.7 33.3 92 -0.5 31.1
21:00 1007 29.74 836 24.69 0.7 33.2 90 -0.9 30.5
21:05 1007 29.74 836 24.69 0.9 33.6 85 -1.4 29.5
21:10 1007 29.74 836 24.69 1.1 34 82 -1.5 29.2
21:15 1007 29.74 836 24.69 1.1 33.9 84 -1.3 29.7
21:20 1007 29.74 836 24.69 1 33.7 83 -1.7 29
21:25 1007 29.74 836 24.69 1.2 34.2 79 -2.1 28.2
21:30 1007 29.74 836 24.69 1.6 34.8 77 -2.1 28.2
21:35 1007 29.74 836 24.69 1.7 35.1 75 -2.2 28
21:40 1007 29.74 836 24.69 1.8 35.3 73 -2.6 27.4
21:45 1007 29.74 836 24.69 2 35.6 72 -2.4 27.6
21:50 1007 29.74 836 24.69 2 35.7 71 -2.7 27.1
21:55 1007 29.74 836 24.69 2.2 36 69 -2.8 26.9
22:00 1007 29.74 836 24.69 2.3 36.1 67 -3.2 26.3
22:05 1007 29.74 836 24.69 2.5 36.6 64 -3.5 25.6
22:10 1007 29.74 836 24.69 2.7 36.9 60 -4.1 24.5
22:15 1007 29.74 836 24.69 2.9 37.1 59 -4.4 24.1
22:20 1007 29.74 836 24.69 2.9 37.2 61 -3.9 24.9
22:25 1007 29.74 836 24.69 2.9 37.2 61 -3.9 24.9
22:30 1007 29.74 836 24.69 2.7 36.9 63 -3.6 25.5
22:35 1007 29.74 836 24.69 2.6 36.6 64 -3.6 25.6
22:40 1007 29.74 836 24.69 2.5 36.5 64 -3.6 25.4
22:45 1007 29.74 836 24.69 2.3 36.1 67 -3.3 26.1
22:50 1007 29.74 836 24.69 1.6 35 70 -3.2 26.3
22:55 1007 29.74 836 24.69 1.5 34.7 70 -3.4 25.8
23:00 1007 29.74 836 24.69 1.6 34.9 69 -3.6 25.6
23:05 1007 29.74 836 24.69 1.6 34.8 69 -3.4 25.8
23:10 1007 29.74 836 24.69 1.6 34.8 68 -3.7 25.4
23:15 1007 29.74 836 24.69 1.7 35 66 -4 24.7
23:20 1007 29.74 836 24.69 1.8 35.2 66 -3.9 25
23:25 1007 29.74 836 24.69 1.7 35 67 -3.8 25.2
23:30 1007 29.74 837 24.72 1.6 34.8 67 -3.9 25
23:35 1007 29.74 837 24.72 1.5 34.7 68 -3.8 25.1
23:40 1007 29.74 837 24.72 1.4 34.6 67 -4.1 24.6
23:45 1007 29.74 837 24.72 1.5 34.7 65 -4.5 24
23:50 1007 29.74 837 24.72 1.5 34.8 64 -4.4 24
23:55 1007 29.74 837 24.72 1.4 34.6 63 -4.8 23.4
24:00 1007 29.74 837 24.72 1.3 34.4 63 -4.9 23.2